Latest Weather Observations for Port Macquarie Airport

IDN60801

Issued at 10:12 am EST Tuesday 26 May 2020 (issued every 10 minutes, with the page automatically refreshed every 10 minutes)

About weather observations | Map of weather stations | Latest weather observations for NSW | Other Formats
Station Details ID: 060139 Name: PORT MACQUARIE AIRPORT AWS Lat: -31.43 Lon: 152.87 Height: 4.2 m
Data from the previous 72 hours. | See also: Recent months at Port Macquarie Airport
Date/Time
EST
Temp
°C
App
Temp
°C
Dew
Point
°C
Rel
Hum
%
Delta-T
°C
Wind Press
QNH
hPa
Press
MSL
hPa
Rain since
9am
mm
Dir  Spd
km/h
Gust
km/h
Spd
kts
Gust
kts
26/10:03am 16.0 13.9 15.2 95 0.5 WSW 20 30 11 16 1017.7 1017.7 0.6
26/10:00am 16.0 13.5 15.2 95 0.5 WSW 22 37 12 20 1017.7 1017.7 0.6
26/09:40am 16.1 13.2 15.0 93 0.6 WSW 24 33 13 18 1017.8 1017.8 0.4
26/09:30am 16.2 12.4 14.6 90 0.9 WSW 28 37 15 20 1017.9 1017.9 0.0
26/09:00am 17.2 13.3 14.3 83 1.7 WSW 28 37 15 20 1017.6 1017.6 10.6
26/08:30am 16.4 13.9 14.1 86 1.3 SW 20 32 11 17 1017.5 1017.5 10.6
26/08:00am 16.2 13.0 14.2 88 1.1 WSW 24 35 13 19 1017.1 1017.1 10.6
26/07:30am 15.7 13.1 13.7 88 1.1 WSW 20 30 11 16 1016.9 1016.9 10.6
26/07:00am 15.6 13.2 13.8 89 1.0 WSW 19 26 10 14 1016.9 1016.9 10.4
26/06:30am 15.4 12.8 13.9 91 0.8 WSW 20 28 11 15 1016.6 1016.6 10.4
26/06:00am 15.3 13.4 14.2 93 0.6 WSW 17 24 9 13 1016.6 1016.6 10.4
26/05:30am 15.0 12.5 14.0 94 0.6 WSW 20 28 11 15 1016.3 1016.3 10.4
26/05:00am 15.1 12.2 14.0 93 0.6 WSW 22 30 12 16 1015.9 1015.9 10.2
26/04:47am 15.3 12.1 14.2 93 0.6 WSW 24 32 13 17 1015.7 1015.7 10.2
26/04:30am 15.1 12.8 14.0 93 0.6 SW 19 26 10 14 1015.5 1015.5 9.8
26/04:18am 15.2 11.9 14.1 93 0.6 WSW 24 32 13 17 1015.4 1015.4 9.4
26/04:00am 15.4 12.5 13.9 91 0.8 SW 22 33 12 18 1015.3 1015.3 9.0
26/03:30am 15.2 13.1 13.7 91 0.8 WSW 17 24 9 13 1015.1 1015.1 8.8
26/03:00am 15.1 13.0 13.6 91 0.8 WSW 17 24 9 13 1015.1 1015.1 8.8
26/02:30am 14.9 12.9 13.8 93 0.6 WSW 17 20 9 11 1015.3 1015.3 8.8
26/02:00am 14.9 12.5 13.9 94 0.6 W 19 26 10 14 1015.3 1015.3 8.8
26/01:36am 14.7 12.3 13.9 95 0.4 W 19 26 10 14 1015.5 1015.5 8.2
26/01:30am 14.6 12.2 13.8 95 0.4 W 19 26 10 14 1015.6 1015.6 8.2
26/01:00am 14.6 12.6 13.8 95 0.4 WSW 17 26 9 14 1015.8 1015.8 5.8
26/12:51am 14.7 12.6 13.7 94 0.6 WSW 17 22 9 12 1015.9 1015.9 4.6
26/12:30am 14.6 12.5 13.6 94 0.6 WSW 17 22 9 12 1015.9 1015.9 3.8
26/12:00am 14.5 12.4 13.7 95 0.4 W 17 20 9 11 1015.8 1015.8 3.0
 
Date/Time
EST
Temp
°C
App
Temp
°C
Dew
Point
°C
Rel
Hum
%
Delta-T
°C
Wind Press
QNH
hPa
Press
MSL
hPa
Rain since
9am
mm
Dir  Spd
km/h
Gust
km/h
Spd
kts
Gust
kts
25/11:30pm 14.5 12.4 13.5 94 0.6 W 17 22 9 12 1016.0 1016.0 2.2
25/11:00pm 14.6 12.5 13.5 93 0.6 W 17 22 9 12 1015.9 1015.9 1.6
25/10:30pm 14.6 12.0 13.3 92 0.7 W 19 24 10 13 1015.9 1015.9 1.2
25/10:00pm 15.0 12.7 12.9 87 1.2 WSW 17 24 9 13 1015.9 1015.9 0.2
25/09:30pm 15.4 12.5 12.3 82 1.7 WSW 19 28 10 15 1015.6 1015.6 0.0
25/09:00pm 16.2 12.6 11.8 75 2.4 WSW 22 30 12 16 1015.3 1015.3 0.0
25/08:30pm 16.4 13.2 11.8 74 2.5 WSW 20 28 11 15 1015.3 1015.3 0.0
25/08:00pm 16.1 12.8 11.7 75 2.4 WSW 20 30 11 16 1015.2 1015.2 0.0
25/07:30pm 16.3 12.3 11.7 74 2.5 WSW 24 32 13 17 1015.2 1015.2 0.0
25/07:00pm 16.3 12.6 11.5 73 2.6 WSW 22 35 12 19 1014.8 1014.8 0.0
25/06:30pm 16.3 12.6 11.5 73 2.6 WSW 22 39 12 21 1014.6 1014.6 0.0
25/06:00pm 16.5 12.0 11.4 72 2.8 WSW 26 39 14 21 1014.5 1014.5 0.0
25/05:30pm 16.5 11.6 11.4 72 2.8 WSW 28 39 15 21 1014.2 1014.2 0.0
25/05:00pm 16.8 12.3 11.5 71 2.9 WSW 26 35 14 19 1013.9 1013.9 0.0
25/04:30pm 17.1 13.4 11.4 69 3.1 WSW 22 35 12 19 1013.7 1013.7 0.0
25/04:00pm 17.8 12.5 11.4 66 3.5 WSW 30 46 16 25 1013.6 1013.6 0.0
25/03:53pm 17.6 12.7 11.2 66 3.5 WSW 28 46 15 25 1013.4 1013.4 0.0
25/03:30pm 18.1 13.2 11.4 65 3.7 WSW 28 39 15 21 1013.5 1013.5 0.0
25/03:00pm 18.5 13.6 11.3 63 3.9 WSW 28 44 15 24 1013.2 1013.2 0.0
25/02:45pm 18.7 13.8 11.3 62 4.0 WSW 28 48 15 26 1013.2 1013.2 0.0
25/02:30pm 19.6 15.5 11.6 60 4.4 WSW 24 39 13 21 1013.3 1013.3 0.0
25/02:00pm 19.0 14.0 11.1 60 4.3 WSW 28 48 15 26 1013.1 1013.1 0.0
25/01:58pm 19.0 14.0 11.1 60 4.3 WSW 28 48 15 26 1013.1 1013.1 0.0
25/01:30pm 19.5 14.7 11.5 60 4.4 SW 28 35 15 19 1013.1 1013.1 0.0
25/01:00pm 18.7 13.0 11.0 61 4.2 WSW 32 39 17 21 1013.1 1013.1 0.0
25/12:30pm 19.8 14.9 11.3 58 4.7 WSW 28 43 15 23 1013.0 1013.0 0.0
25/12:00pm 19.7 15.2 11.5 59 4.5 WSW 26 44 14 24 1013.3 1013.3 0.0
25/11:46am 19.5 14.1 10.8 57 4.7 WSW 30 52 16 28 1013.5 1013.5 0.0
25/11:30am 19.6 13.7 11.1 58 4.6 WSW 33 50 18 27 1013.5 1013.5 0.0
25/11:23am 19.3 13.4 10.6 57 4.7 WSW 32 50 17 27 1013.5 1013.5 0.0
25/11:00am 19.3 13.5 10.8 58 4.6 WSW 32 43 17 23 1013.7 1013.7 0.0
25/10:30am 19.2 14.3 11.3 60 4.3 WSW 28 39 15 21 1013.9 1013.9 0.0
25/10:00am 18.7 13.5 10.3 58 4.5 WSW 28 39 15 21 1013.9 1013.9 0.0
25/09:30am 18.0 13.1 10.1 60 4.2 WSW 26 37 14 20 1014.1 1014.1 0.0
25/09:00am 17.5 13.4 10.1 62 3.9 WSW 22 33 12 18 1013.7 1013.7 0.0
25/08:30am 16.9 12.7 9.8 63 3.7 WSW 22 33 12 18 1013.8 1013.8 0.0
25/08:00am 16.2 12.3 9.6 65 3.4 WSW 20 32 11 17 1013.8 1013.8 0.0
25/07:30am 15.5 11.6 9.4 67 3.1 WSW 20 28 11 15 1013.8 1013.8 0.0
25/07:00am 14.9 11.2 9.3 69 2.9 WSW 19 26 10 14 1013.7 1013.7 0.0
25/06:30am 14.8 10.8 9.0 68 3.0 WSW 20 30 11 16 1013.4 1013.4 0.0
25/06:00am 14.6 10.5 8.8 68 2.9 WSW 20 30 11 16 1013.1 1013.1 0.0
25/05:30am 14.6 10.2 8.8 68 2.9 WSW 22 33 12 18 1012.6 1012.6 0.0
25/05:00am 15.0 9.4 8.7 66 3.2 WSW 28 39 15 21 1012.2 1012.2 0.0
25/04:30am 15.2 10.3 8.4 64 3.4 WSW 24 37 13 20 1011.9 1011.9 0.0
25/04:00am 15.3 10.0 8.5 64 3.4 WSW 26 35 14 19 1011.6 1011.6 0.0
25/03:30am 15.3 9.6 8.3 63 3.5 WSW 28 39 15 21 1011.7 1011.7 0.0
25/03:00am 15.1 10.1 8.1 63 3.5 WSW 24 35 13 19 1011.4 1011.4 0.0
25/02:30am 15.1 9.7 7.9 62 3.6 WSW 26 37 14 20 1011.2 1011.2 0.0
25/02:00am 15.0 9.9 7.5 61 3.7 WSW 24 35 13 19 1011.2 1011.2 0.0
25/01:30am 15.1 9.2 7.6 61 3.7 WSW 28 41 15 22 1011.3 1011.3 0.0
25/01:00am 15.3 9.5 7.8 61 3.7 WSW 28 43 15 23 1011.4 1011.4 0.0
25/12:30am 15.5 9.3 7.8 60 3.8 WSW 30 39 16 21 1011.8 1011.8 0.0
25/12:00am 15.7 10.0 8.2 61 3.8 WSW 28 44 15 24 1012.0 1012.0 0.0
 
Date/Time
EST
Temp
°C
App
Temp
°C
Dew
Point
°C
Rel
Hum
%
Delta-T
°C
Wind Press
QNH
hPa
Press
MSL
hPa
Rain since
9am
mm
Dir  Spd
km/h
Gust
km/h
Spd
kts
Gust
kts
24/11:38pm 15.6 9.9 8.4 62 3.6 WSW 28 46 15 25 1012.0 1012.0 0.0
24/11:30pm 16.0 9.5 8.2 60 3.9 WSW 32 43 17 23 1011.9 1011.9 0.0
24/11:08pm 15.9 9.9 8.6 62 3.7 WSW 30 48 16 26 1011.9 1011.9 0.0
24/11:00pm 15.9 9.5 8.6 62 3.7 WSW 32 44 17 24 1011.9 1011.9 0.0
24/10:30pm 16.0 9.6 8.7 62 3.7 WSW 32 50 17 27 1011.9 1011.9 0.0
24/10:14pm 16.0 10.5 9.0 63 3.6 WSW 28 46 15 25 1011.9 1011.9 0.0
24/10:00pm 16.0 9.8 9.2 64 3.5 WSW 32 44 17 24 1011.6 1011.6 0.0
24/09:37pm 16.2 9.8 9.4 64 3.5 WSW 33 54 18 29 1011.7 1011.7 0.0
24/09:30pm 16.0 9.8 9.4 65 3.4 WSW 32 46 17 25 1011.8 1011.8 0.0
24/09:00pm 15.9 10.2 9.8 67 3.2 WSW 30 41 16 22 1011.7 1011.7 0.0
24/08:42pm 16.1 10.1 10.0 67 3.2 WSW 32 50 17 27 1011.6 1011.6 0.0
24/08:30pm 16.0 10.7 9.9 67 3.2 WSW 28 44 15 24 1011.4 1011.4 0.0
24/08:04pm 16.0 10.4 10.1 68 3.1 WSW 30 48 16 26 1011.1 1011.1 0.0
24/08:00pm 16.1 9.9 10.2 68 3.1 WSW 33 48 18 26 1011.1 1011.1 0.0
24/07:30pm 16.1 9.6 10.2 68 3.1 SW 35 56 19 30 1010.6 1010.6 0.0
24/07:12pm 16.2 10.6 10.3 68 3.1 WSW 30 48 16 26 1010.4 1010.4 0.0
24/07:00pm 16.2 10.3 10.3 68 3.1 WSW 32 44 17 24 1010.2 1010.2 0.0
24/06:46pm 16.2 11.0 10.3 68 3.1 WSW 28 46 15 25 1010.0 1010.0 0.0
24/06:30pm 16.1 10.0 10.6 70 2.9 WSW 33 46 18 25 1010.0 1010.0 0.0
24/06:00pm 16.5 11.3 10.4 67 3.2 WSW 28 39 15 21 1009.7 1009.7 0.0
24/05:35pm 16.7 11.1 10.3 66 3.4 WSW 30 48 16 26 1009.2 1009.2 0.0
24/05:30pm 16.7 11.9 10.3 66 3.4 WSW 26 39 14 21 1009.2 1009.2 0.0
24/05:00pm 16.9 11.3 10.3 65 3.5 WSW 30 54 16 29 1008.8 1008.8 0.0
24/04:30pm 17.2 12.0 10.3 64 3.7 WSW 28 46 15 25 1008.7 1008.7 0.0
24/04:00pm 17.4 12.3 10.5 64 3.7 WSW 28 44 15 24 1008.2 1008.2 0.0
24/03:30pm 17.7 12.7 11.0 65 3.6 WSW 28 43 15 23 1007.9 1007.9 0.0
24/03:00pm 18.0 12.2 10.9 63 3.8 WSW 32 44 17 24 1007.7 1007.7 0.0
24/02:30pm 18.2 13.2 11.0 63 3.9 WSW 28 46 15 25 1007.7 1007.7 0.0
24/02:26pm 18.1 13.1 11.0 63 3.8 WSW 28 46 15 25 1007.6 1007.6 0.0
24/02:00pm 19.1 13.3 11.4 61 4.2 WSW 33 48 18 26 1007.6 1007.6 0.0
24/01:47pm 19.2 14.2 11.0 59 4.5 WSW 28 57 15 31 1007.5 1007.5 0.0
24/01:30pm 18.4 12.6 10.8 61 4.1 WSW 32 44 17 24 1007.6 1007.6 0.0
24/01:06pm 19.0 13.7 11.3 61 4.2 WSW 30 48 16 26 1007.7 1007.7 0.0
24/01:00pm 18.5 12.7 10.8 61 4.2 WSW 32 48 17 26 1007.7 1007.7 0.0
24/12:30pm 18.6 13.3 11.2 62 4.0 WSW 30 44 16 24 1007.8 1007.8 0.0
24/12:29pm 18.8 13.5 11.1 61 4.2 WSW 30 48 16 26 1007.8 1007.8 0.0
24/12:00pm 18.5 13.8 10.6 60 4.3 WSW 26 39 14 21 1008.1 1008.1 0.0
24/11:41am 18.9 13.8 10.7 59 4.4 WSW 28 48 15 26 1008.2 1008.2 0.0
24/11:30am 18.6 12.8 10.9 61 4.2 WSW 32 48 17 26 1008.3 1008.3 0.0
24/11:22am 18.8 13.8 10.9 60 4.3 WSW 28 48 15 26 1008.3 1008.3 0.0
24/11:00am 18.9 13.8 10.7 59 4.4 WSW 28 39 15 21 1008.1 1008.1 0.0
24/10:50am 19.1 14.2 11.2 60 4.3 WSW 28 46 15 25 1008.4 1008.4 0.0
24/10:30am 18.6 14.0 11.2 62 4.0 WSW 26 43 14 23 1008.4 1008.4 0.0
24/10:00am 18.3 13.2 10.7 61 4.1 WSW 28 41 15 22 1008.8 1008.8 0.0
24/09:45am 18.1 12.2 10.5 61 4.1 WSW 32 50 17 27 1008.5 1008.5 0.0
24/09:30am 18.3 13.7 10.9 62 4.0 WSW 26 41 14 22 1008.7 1008.7 0.0
24/09:00am 17.0 11.8 10.4 65 3.5 WSW 28 43 15 23 1008.4 1008.4 0.0
24/08:30am 16.8 12.8 10.4 66 3.4 WSW 22 33 12 18 1008.5 1008.5 0.0
24/08:00am 15.7 12.8 9.8 68 3.1 W 15 26 8 14 1008.2 1008.2 0.0
24/07:30am 14.6 11.2 9.2 70 2.8 W 17 22 9 12 1008.3 1008.3 0.0
24/07:00am 14.5 11.5 9.1 70 2.8 W 15 19 8 10 1008.2 1008.2 0.0
24/06:30am 14.1 11.4 8.9 71 2.6 W 13 20 7 11 1008.0 1008.0 0.0
24/06:00am 13.9 11.1 8.7 71 2.6 W 13 20 7 11 1007.7 1007.7 0.0
24/05:30am 13.4 10.6 8.5 72 2.4 W 13 17 7 9 1007.5 1007.5 0.0
24/05:00am 13.4 10.2 8.5 72 2.5 W 15 20 8 11 1007.3 1007.3 0.0
24/04:30am 13.4 10.2 8.5 72 2.4 W 15 20 8 11 1007.0 1007.0 0.0
24/04:00am 13.4 9.5 8.5 72 2.5 W 19 24 10 13 1007.1 1007.1 0.0
24/03:30am 13.8 10.2 8.4 70 2.7 W 17 26 9 14 1007.3 1007.3 0.0
24/03:00am 14.0 10.0 8.4 69 2.8 W 19 26 10 14 1007.5 1007.5 0.0
24/02:30am 14.2 10.6 8.4 68 2.9 W 17 28 9 15 1007.8 1007.8 0.0
24/02:00am 14.2 10.6 8.2 67 3.0 W 17 28 9 15 1007.8 1007.8 0.0
24/01:30am 14.7 10.8 7.0 60 3.8 W 17 26 9 14 1008.0 1008.0 0.0
24/01:00am 14.7 10.8 7.0 60 3.8 W 17 24 9 13 1007.9 1007.9 0.0
24/12:30am 14.6 11.0 6.9 60 3.8 W 15 22 8 12 1008.2 1008.2 0.0
24/12:00am 14.3 10.7 6.6 60 3.7 W 15 20 8 11 1008.4 1008.4 0.0
 
Date/Time
EST
Temp
°C
App
Temp
°C
Dew
Point
°C
Rel
Hum
%
Delta-T
°C
Wind Press
QNH
hPa
Press
MSL
hPa
Rain since
9am
mm
Dir  Spd
km/h
Gust
km/h
Spd
kts
Gust
kts
23/11:30pm 14.1 10.9 6.7 61 3.6 WNW 13 19 7 10 1008.4 1008.4 0.0
23/11:00pm 13.8 10.1 6.4 61 3.6 W 15 20 8 11 1008.4 1008.4 0.0
23/10:30pm 14.0 10.7 6.6 61 3.6 WNW 13 19 7 10 1008.6 1008.6 0.0
23/10:00pm 14.2 10.9 6.6 60 3.7 WNW 13 19 7 10 1008.5 1008.5 0.0
23/09:30pm 14.5 11.2 6.6 59 3.8 W 13 19 7 10 1008.5 1008.5 0.0
23/09:00pm 14.7 10.7 6.8 59 3.9 WNW 17 24 9 13 1008.2 1008.2 0.0
23/08:30pm 14.9 11.3 6.7 58 4.0 W 15 24 8 13 1008.3 1008.3 0.0
23/08:00pm 14.9 11.7 7.0 59 3.9 W 13 22 7 12 1008.3 1008.3 0.0
23/07:30pm 15.4 12.8 7.7 60 3.8 WNW 11 15 6 8 1008.5 1008.5 0.0
23/07:00pm 15.8 12.8 7.8 59 4.0 W 13 20 7 11 1008.1 1008.1 0.0
23/06:30pm 16.2 12.0 7.4 56 4.4 W 19 30 10 16 1007.7 1007.7 0.0
23/06:00pm 16.7 12.9 7.6 55 4.6 W 17 26 9 14 1007.6 1007.6 0.0
23/05:30pm 16.9 13.7 8.3 57 4.4 W 15 20 8 11 1007.4 1007.4 0.0
23/05:00pm 17.4 14.6 8.5 56 4.6 WNW 13 20 7 11 1007.1 1007.1 0.0
23/04:30pm 17.8 15.9 10.4 62 3.9 WSW 11 13 6 7 1006.6 1006.6 0.0
23/04:00pm 18.3 15.9 9.9 58 4.5 SW 13 19 7 10 1006.6 1006.6 0.0
23/03:30pm 18.8 15.6 9.8 56 4.8 SW 17 24 9 13 1006.0 1006.0 0.0
23/03:00pm 19.5 17.5 10.0 54 5.1 SW 11 15 6 8 1005.8 1005.8 0.0
23/02:30pm 19.2 15.9 9.4 53 5.2 SW 17 22 9 12 1006.0 1006.0 0.0
23/02:00pm 19.8 16.9 9.7 52 5.4 SW 15 26 8 14 1005.8 1005.8 0.0
23/01:30pm 19.6 16.1 8.6 49 5.7 SW 17 24 9 13 1006.4 1006.4 0.0
23/01:00pm 20.3 17.2 8.9 48 6.0 WSW 15 22 8 12 1006.6 1006.6 0.0
23/12:30pm 19.8 16.6 8.5 48 5.9 W 15 22 8 12 1006.8 1006.8 0.0
23/12:12pm 19.5 15.8 7.9 47 6.0 W 17 20 9 11 1007.1 1007.1 0.0
23/12:00pm 19.8 16.2 8.5 48 5.9 WNW 17 28 9 15 1007.3 1007.3 0.0
23/11:46am 19.4 16.0 7.5 46 6.1 W 15 20 8 11 1007.4 1007.4 0.0
23/11:30am 18.9 15.9 7.7 48 5.7 NW 13 17 7 9 1007.8 1007.8 0.0
23/11:00am 17.6 13.6 6.5 48 5.5 WNW 17 26 9 14 1008.5 1008.5 0.0
23/10:30am 18.1 13.7 6.6 47 5.7 WNW 19 32 10 17 1008.7 1008.7 0.0

Other formats

Comma delimited format used in spreadsheet applications
http://www.bom.gov.au/fwo/IDN60801/IDN60801.94786.axf

JavaScript Object Notation format (JSON) in row-major order
http://www.bom.gov.au/fwo/IDN60801/IDN60801.94786.json

Data quality

Most of these data are generated automatically and are frequently updated. Quality checks on data are not normally performed. It is possible for incorrect values to appear. Refer to information at About Latest Weather Observations and please check the disclaimer before using these data.